| time (UTC) | temp F | wind direction | speed MPH | gust MPH | rain 1hr in | rain 24hr in | rain mn in | humidity % | barometer mb |
| 20260505205507 | 50 | 249 | 0.0 | 0.0 | 0.00 | 0.58 | 0.57 | 79 | 1007.6 |
| 20260505203336 | 49 | 300 | 0.0 | 0.0 | 0.04 | 0.58 | 0.57 | 84 | 1007.6 |
| 20260505201152 | 51 | 228 | 0.0 | 0.0 | 0.00 | 0.55 | 0.55 | 77 | 1007.7 |
| 20260505200154 | 52 | 160 | 0.0 | 0.0 | 0.00 | 0.55 | 0.55 | 76 | 1007.6 |
| 20260505195137 | 51 | 266 | 0.0 | 1.0 | 0.00 | 0.55 | 0.55 | 77 | 1007.8 |
| 20260505194130 | 52 | 222 | 0.0 | 1.0 | 0.00 | 0.55 | 0.55 | 77 | 1007.9 |
| 20260505193110 | 51 | 215 | 0.0 | 0.0 | 0.00 | 0.55 | 0.55 | 82 | 1008.1 |
| 20260505192039 | 49 | 258 | 0.0 | 0.0 | 0.00 | 0.55 | 0.55 | 86 | 1008.5 |
| 20260505185920 | 48 | 264 | 0.0 | 0.0 | 0.00 | 0.55 | 0.55 | 91 | 1008.8 |
| 20260505183723 | 45 | 21 | 0.0 | 0.0 | 0.00 | 0.55 | 0.55 | 95 | 1008.9 |
| 20260505182743 | 44 | 278 | 0.0 | 0.0 | 0.05 | 0.55 | 0.55 | 93 | 1009.1 |
| 20260505181750 | 44 | 240 | 0.0 | 0.0 | 0.20 | 0.55 | 0.55 | 93 | 1008.9 |
| 20260505180727 | 44 | 239 | 0.0 | 0.0 | 0.27 | 0.51 | 0.52 | 93 | 1008.8 |
| 20260505175725 | 44 | 261 | 0.0 | 0.0 | 1.05 | 0.40 | 0.43 | 92 | 1008.7 |
| 20260505174736 | 45 | 274 | 0.0 | 0.0 | 0.06 | 0.38 | 0.38 | 92 | 1008.5 |
| 20260505173705 | 45 | 216 | 0.0 | 0.0 | 0.10 | 0.36 | 0.37 | 92 | 1008.5 |
| 20260505172703 | 45 | 255 | 0.0 | 0.0 | 0.12 | 0.35 | 0.36 | 92 | 1008.5 |
| 20260505171704 | 45 | 264 | 0.0 | 0.0 | 0.09 | 0.32 | 0.34 | 91 | 1008.4 |
| 20260505165526 | 47 | 292 | 0.0 | 0.0 | 0.00 | 0.31 | 0.31 | 89 | 1008.0 |
| 20260505163443 | 47 | 210 | 0.0 | 0.0 | 0.00 | 0.31 | 0.31 | 91 | 1007.9 |
| 20260505162409 | 46 | 151 | 0.0 | 0.0 | 0.00 | 0.31 | 0.31 | 93 | 1007.9 |
| 20260505161401 | 45 | 266 | 0.0 | 0.0 | 0.00 | 0.31 | 0.31 | 92 | 1008.1 |
| 20260505153109 | 45 | 229 | 0.0 | 0.0 | 0.00 | 0.29 | 0.30 | 93 | 1007.8 |
| 20260505150942 | 44 | 255 | 0.0 | 0.0 | 0.00 | 0.29 | 0.30 | 94 | 1007.8 |
| 20260505124813 | 44 | 241 | 0.0 | 0.0 | 0.00 | 0.14 | 0.15 | 93 | 1007.1 |
| 20260505122636 | 44 | 131 | 0.0 | 0.0 | 0.12 | 0.14 | 0.15 | 92 | 1007.2 |
| 20260505120554 | 44 | 251 | 0.0 | 0.0 | 0.13 | 0.08 | 0.09 | 92 | 1007.6 |
| 20260505114334 | 44 | 62 | 0.0 | 1.0 | 0.06 | 0.04 | 0.04 | 91 | 1007.2 |
| 20260505113311 | 44 | 198 | 0.0 | 0.0 | 0.04 | 0.03 | 0.03 | 91 | 1007.4 |
| 20260505111111 | 45 | 274 | 0.0 | 0.0 | 0.09 | 0.01 | 0.02 | 89 | 1007.5 |
| 20260505110123 | 45 | 214 | 0.0 | 0.0 | 0.00 | 0.00 | 0.00 | 88 | 1007.4 |
| 20260505101902 | 46 | 284 | 0.0 | 0.0 | 0.00 | 0.00 | 0.00 | 83 | 1007.6 |
| 20260505100834 | 46 | 293 | 0.0 | 0.0 | 0.00 | 0.00 | 0.00 | 82 | 1007.6 |
| 20260505095840 | 46 | 232 | 0.0 | 0.0 | 0.00 | 0.00 | 0.00 | 82 | 1007.7 |
| 20260505094858 | 46 | 295 | 0.0 | 0.0 | 0.00 | 0.00 | 0.00 | 83 | 1007.6 |
| 20260505092813 | 46 | 208 | 0.0 | 2.0 | 0.00 | 0.00 | 0.00 | 82 | 1007.5 |
| 20260505091816 | 46 | 92 | 0.0 | 0.0 | 0.00 | 0.00 | 0.00 | 82 | 1007.6 |
| 20260505085654 | 46 | 271 | 0.0 | 0.0 | 0.00 | 0.00 | 0.00 | 81 | 1008.1 |
| 20260505083525 | 46 | 229 | 0.0 | 0.0 | 0.00 | 0.00 | 0.00 | 79 | 1008.5 |
| 20260505082530 | 46 | 255 | 0.0 | 1.0 | 0.00 | 0.00 | 0.00 | 78 | 1008.6 |
| 20260505081500 | 46 | 224 | 0.0 | 1.0 | 0.00 | 0.00 | 0.00 | 78 | 1008.7 |
| 20260505080438 | 47 | 212 | 0.0 | 1.0 | 0.00 | 0.00 | 0.00 | 76 | 1008.8 |
| 20260505075444 | 47 | 212 | 0.0 | 3.0 | 0.00 | 0.00 | 0.00 | 75 | 1008.9 |
| 20260505073329 | 47 | 224 | 0.0 | 2.0 | 0.00 | 0.00 | 0.00 | 74 | 1008.6 |
| 20260505072336 | 47 | 220 | 0.0 | 0.0 | 0.00 | 0.00 | 0.00 | 74 | 1008.9 |
| 20260505071338 | 47 | 237 | 0.0 | 0.0 | 0.00 | 0.00 | 0.00 | 73 | 1009.0 |
| 20260505070334 | 48 | 226 | 0.0 | 0.0 | 0.00 | 0.00 | 0.00 | 73 | 1008.8 |
| 20260505064145 | 48 | 198 | 0.0 | 2.0 | 0.00 | 0.00 | 0.00 | 73 | 1009.1 |
| 20260505063128 | 48 | 231 | 0.0 | 0.0 | 0.00 | 0.00 | 0.00 | 72 | 1009.1 |
| 20260505061003 | 48 | 198 | 0.0 | 3.0 | 0.00 | 0.00 | 0.00 | 69 | 1009.0 |
| 20260505060009 | 49 | 221 | 0.0 | 3.0 | 0.00 | 0.00 | 0.00 | 67 | 1009.1 |
| 20260505054955 | 49 | 242 | 0.0 | 0.0 | 0.00 | 0.00 | 0.00 | 65 | 1009.0 |
| 20260505053928 | 49 | 249 | 0.0 | 1.0 | 0.00 | 0.00 | 0.00 | 64 | 1008.8 |
| 20260505052909 | 49 | 210 | 0.0 | 0.0 | 0.00 | 0.00 | 0.00 | 63 | 1008.7 |
| 20260505050750 | 50 | 254 | 0.0 | 1.0 | 0.00 | 0.00 | 0.00 | 59 | 1009.2 |
| 20260505041612 | 50 | 229 | 0.0 | 0.0 | 0.00 | 0.00 | 0.00 | 53 | 1008.8 |
| 20260505040626 | 50 | 141 | 0.0 | 2.0 | 0.00 | 0.00 | 0.00 | 54 | 1008.6 |
| 20260505035614 | 50 | 207 | 0.0 | 4.0 | 0.00 | 0.00 | 0.00 | 54 | 1008.5 |
| 20260505034626 | 50 | 156 | 0.0 | 2.0 | 0.00 | 0.00 | 0.00 | 54 | 1008.2 |
| 20260505033556 | 51 | 241 | 0.0 | 0.0 | 0.00 | 0.00 | 0.00 | 53 | 1008.6 |
| 20260505032617 | 51 | 265 | 0.0 | 2.0 | 0.00 | 0.00 | 0.00 | 52 | 1008.3 |
| 20260505031545 | 51 | 216 | 0.0 | 3.0 | 0.00 | 0.00 | 0.00 | 51 | 1008.1 |
| 20260505030511 | 51 | 240 | 0.0 | 3.0 | 0.00 | 0.00 | 0.00 | 50 | 1008.0 |
| 20260505025537 | 52 | 217 | 0.0 | 3.0 | 0.00 | 0.00 | 0.00 | 49 | 1007.9 |
| 20260505024559 | 52 | 223 | 0.0 | 2.0 | 0.00 | 0.00 | 0.00 | 48 | 1007.8 |
| 20260505023558 | 52 | 262 | 0.0 | 2.0 | 0.00 | 0.00 | 0.00 | 47 | 1007.9 |
| 20260505022527 | 53 | 259 | 0.0 | 4.0 | 0.00 | 0.00 | 0.00 | 46 | 1008.1 |
| 20260505021504 | 53 | 253 | 0.0 | 4.0 | 0.00 | 0.00 | 0.00 | 44 | 1008.1 |
| 20260505013048 | 54 | 282 | 0.0 | 2.0 | 0.00 | 0.00 | 0.00 | 41 | 1007.8 |
| 20260505012113 | 55 | 211 | 0.0 | 2.0 | 0.00 | 0.00 | 0.00 | 43 | 1007.7 |
| 20260505011127 | 55 | 228 | 0.0 | 0.0 | 0.00 | 0.00 | 0.00 | 42 | 1007.7 |
| 20260505010119 | 55 | 238 | 0.0 | 3.0 | 0.00 | 0.00 | 0.00 | 41 | 1007.9 |
| 20260505005057 | 56 | 220 | 0.0 | 1.0 | 0.00 | 0.00 | 0.00 | 40 | 1007.6 |
| 20260505004114 | 56 | 243 | 0.0 | 2.0 | 0.00 | 0.00 | 0.00 | 40 | 1007.8 |
| 20260505003056 | 57 | 215 | 0.0 | 3.0 | 0.00 | 0.00 | 0.00 | 38 | 1008.0 |
| 20260505002102 | 58 | 231 | 0.0 | 3.0 | 0.00 | 0.00 | 0.00 | 38 | 1008.1 |
| 20260505001055 | 58 | 255 | 0.0 | 3.0 | 0.00 | 0.00 | 0.00 | 36 | 1008.1 |
| 20260505000044 | 60 | 205 | 0.0 | 3.0 | 0.00 | 0.00 | 0.00 | 33 | 1007.9 |
| 20260504234002 | 61 | 288 | 1.0 | 5.0 | 0.00 | 0.00 | 0.00 | 31 | 1008.1 |
| 20260504231845 | 62 | 290 | 0.0 | 2.0 | 0.00 | 0.00 | 0.00 | 31 | 1007.9 |
| 20260504230836 | 62 | 262 | 0.0 | 3.0 | 0.00 | 0.00 | 0.00 | 29 | 1007.8 |
| 20260504222436 | 64 | 159 | 0.0 | 3.0 | 0.00 | 0.00 | 0.00 | 27 | 1008.3 |
| 20260504221425 | 64 | 280 | 0.0 | 4.0 | 0.00 | 0.00 | 0.00 | 27 | 1008.5 |
| 20260504215241 | 66 | 223 | 0.0 | 3.0 | 0.00 | 0.00 | 0.00 | 26 | 1008.2 |
| 20260504213041 | 68 | 254 | 0.0 | 6.0 | 0.00 | 0.00 | 0.00 | 25 | 1008.5 |
| 20260504212042 | 68 | 263 | 0.0 | 4.0 | 0.00 | 0.00 | 0.00 | 22 | 1008.4 |
| 20260504211043 | 68 | 257 | 0.0 | 3.0 | 0.00 | 0.00 | 0.00 | 24 | 1008.3 |